^^
Station Historical Data
Daily Summary for December 8, 2017 Units:  Metric    English   Both
« Previous Day
Next Day »
Daily Weekly Monthly Yearly Custom
  High: Low: Average:
Temperature: 0.9 °C -2.4 °C -0.4 °C
Dew Point: -2.6 °C -7.8 °C -6.4 °C
Humidity: 80 % 57 % 64 %
Wind Speed: 8.7 km/h 0 km/h 0.5 km/h
Wind Gust: 18.5 km/h - -
Wind:- - WSW
Pressure: 1020.2 hPa 1015.5 hPa -
Precipitation: 0 mm    
Historical Graphs
 
 
Tabular Data for December 8, 2017
Time Temperature Dew Point Pressure Wind Wind Speed Wind Gust Humidity Rainfall Rate (Hourly) solar Conditions
00:03 0.9 °C -2.6 °C 1017.5 hPa Calm     77 % 0 mm 0.0 W/m2 BKN
00:08 0.8 °C -2.8 °C 1017.5 hPa Calm     77 % 0 mm 0.0 W/m2 BKN
00:15 0.5 °C -2.9 °C 1017.8 hPa Calm     78 % 0 mm 0.0 W/m2 BKN
00:19 0.5 °C -2.9 °C 1017.8 hPa Calm     78 % 0 mm 0.0 W/m2 BKN
00:24 0.6 °C -2.8 °C 1017.8 hPa Calm     78 % 0 mm 0.0 W/m2 BKN
00:29 0.6 °C -3 °C 1017.5 hPa Calm     77 % 0 mm 0.0 W/m2 BKN
00:34 0.6 °C -3 °C 1017.8 hPa Calm     77 % 0 mm 0.0 W/m2 BKN
00:39 0.4 °C -3.1 °C 1017.8 hPa Calm     77 % 0 mm 0.0 W/m2 BKN
00:44 0.3 °C -3.3 °C 1017.8 hPa Calm     77 % 0 mm 0.0 W/m2 BKN
00:49 0.2 °C -3.2 °C 1017.8 hPa Calm     78 % 0 mm 0.0 W/m2 BKN
00:54 0.1 °C -3.3 °C 1017.8 hPa Calm     78 % 0 mm 0.0 W/m2 BKN
00:59 0 °C -3.2 °C 1017.8 hPa Calm     79 % 0 mm 0.0 W/m2 BKN
01:04 0 °C -3.2 °C 1017.8 hPa Calm     79 % 0 mm 0.0 W/m2 FEW
01:09 0 °C -3.2 °C 1017.8 hPa Calm     79 % 0 mm 0.0 W/m2 FEW
01:14 0.1 °C -3.2 °C 1017.5 hPa Calm   5.6 km/h 79 % 0 mm 0.0 W/m2 FEW
01:19 0.2 °C -3.2 °C 1017.8 hPa Calm   5.6 km/h 78 % 0 mm 0.0 W/m2 FEW
01:24 0.3 °C -3.3 °C 1018.2 hPa Calm     77 % 0 mm 0.0 W/m2 FEW
01:29 0.4 °C -3.3 °C 1018.2 hPa Calm   1.9 km/h 76 % 0 mm 0.0 W/m2 FEW
01:34 0.4 °C -3.6 °C 1018.2 hPa Calm   1.9 km/h 75 % 0 mm 0.0 W/m2 FEW
01:39 0.2 °C -3.7 °C 1018.2 hPa Calm     75 % 0 mm 0.0 W/m2 FEW
01:44 -0.1 °C -3.8 °C 1018.2 hPa Calm     76 % 0 mm 0.0 W/m2 FEW
01:49 -0.2 °C -3.7 °C 1018.2 hPa Calm     77 % 0 mm 0.0 W/m2 FEW
01:54 -0.2 °C -3.7 °C 1018.2 hPa Calm     77 % 0 mm 0.0 W/m2 FEW
01:59 -0.4 °C -3.8 °C 1018.5 hPa Calm     78 % 0 mm 0.0 W/m2 FEW
02:04 -0.6 °C -4 °C 1018.5 hPa Calm     78 % 0 mm 0.0 W/m2 FEW
02:09 -0.7 °C -3.9 °C 1018.5 hPa Calm     79 % 0 mm 0.0 W/m2 FEW
02:14 -0.7 °C -3.8 °C 1018.2 hPa Calm     79 % 0 mm 0.0 W/m2 FEW
02:19 -0.7 °C -3.9 °C 1018.2 hPa Calm     79 % 0 mm 0.0 W/m2 FEW
02:25 -1 °C -4 °C 1018.5 hPa Calm     80 % 0 mm 0.0 W/m2 FEW
02:30 -1.2 °C -4.2 °C 1018.8 hPa Calm     80 % 0 mm 0.0 W/m2 FEW
02:35 -1.3 °C -4.3 °C 1018.8 hPa Calm     80 % 0 mm 0.0 W/m2 FEW
02:40 -1.4 °C -4.4 °C 1018.5 hPa Calm     80 % 0 mm 0.0 W/m2 FEW
02:45 -1.3 °C -4.3 °C 1018.5 hPa Calm     80 % 0 mm 0.0 W/m2 FEW
02:50 -1.2 °C -4.2 °C 1018.8 hPa Calm     80 % 0 mm 0.0 W/m2 FEW
02:55 -1.2 °C -4.4 °C 1018.8 hPa Calm     79 % 0 mm 0.0 W/m2 FEW
03:00 -1.1 °C -4.6 °C 1018.5 hPa WNW 1.6 km/h 9.3 km/h 77 % 0 mm 0.0 W/m2 FEW
03:05 -0.9 °C -5.1 °C 1018.5 hPa West 0.8 km/h 9.3 km/h 73 % 0 mm 0.0 W/m2 CLR
03:10 -0.7 °C -5.5 °C 1018.5 hPa Calm   7.4 km/h 70 % 0 mm 0.0 W/m2 CLR
03:15 -0.6 °C -5.8 °C 1018.5 hPa West 0.8 km/h 11.1 km/h 68 % 0 mm 0.0 W/m2 CLR
03:20 -0.6 °C -6.2 °C 1018.5 hPa West 1.6 km/h 16.1 km/h 66 % 0 mm 0.0 W/m2 CLR
03:25 -0.6 °C -6.6 °C 1018.5 hPa Calm   9.7 km/h 64 % 0 mm 0.0 W/m2 CLR
03:30 -0.7 °C -6.7 °C 1018.8 hPa Calm   16.7 km/h 64 % 0 mm 0.0 W/m2 CLR
03:35 -0.8 °C -6.9 °C 1018.8 hPa Calm   5.6 km/h 63 % 0 mm 0.0 W/m2 CLR
03:40 -1 °C -6.9 °C 1018.8 hPa West 0.2 km/h 5.6 km/h 64 % 0 mm 0.0 W/m2 CLR
03:45 -1.1 °C -7.1 °C 1018.8 hPa West 0.5 km/h 5.6 km/h 64 % 0 mm 0.0 W/m2 CLR
03:50 -1.3 °C -7 °C 1018.8 hPa Calm   1.9 km/h 65 % 0 mm 0.0 W/m2 CLR
03:55 -1.3 °C -7 °C 1018.8 hPa Calm   1.9 km/h 65 % 0 mm 0.0 W/m2 CLR
04:00 -1.2 °C -7.2 °C 1018.8 hPa Calm   5.6 km/h 64 % 0 mm 0.0 W/m2 CLR
04:05 -1.3 °C -7 °C 1018.8 hPa Calm   5.6 km/h 65 % 0 mm 0.0 W/m2 CLR
04:10 -1.3 °C -7 °C 1019.2 hPa Calm     65 % 0 mm 0.0 W/m2 CLR
04:15 -1.3 °C -6.8 °C 1019.2 hPa Calm     66 % 0 mm 0.0 W/m2 CLR
04:20 -1.4 °C -6.8 °C 1018.8 hPa Calm     67 % 0 mm 0.0 W/m2 CLR
04:25 -1.6 °C -6.7 °C 1018.8 hPa Calm     68 % 0 mm 0.0 W/m2 CLR
04:30 -1.7 °C -6.8 °C 1018.8 hPa Calm     68 % 0 mm 0.0 W/m2 CLR
04:35 -1.7 °C -6.6 °C 1018.8 hPa Calm     69 % 0 mm 0.0 W/m2 CLR
04:40 -1.7 °C -6.6 °C 1018.8 hPa Calm     69 % 0 mm 0.0 W/m2 CLR
04:45 -1.7 °C -6.6 °C 1018.8 hPa Calm     69 % 0 mm 0.0 W/m2 CLR
04:50 -1.5 °C -6.8 °C 1018.8 hPa Calm     67 % 0 mm 0.0 W/m2 CLR
05:00 -1.5 °C -7.2 °C 1018.8 hPa WNW 1 km/h 5.6 km/h 65 % 0 mm 0.0 W/m2 CLR
05:05 -1.4 °C -7.2 °C 1019.2 hPa Calm   5.6 km/h 65 % 0 mm 0.0 W/m2 CLR
05:10 -1.4 °C -7.3 °C 1019.2 hPa Calm   5.6 km/h 64 % 0 mm 0.0 W/m2 CLR
05:15 -1.4 °C -7.6 °C 1019.2 hPa Calm     63 % 0 mm 0.0 W/m2 CLR
05:20 -1.4 °C -7.6 °C 1018.8 hPa Calm     63 % 0 mm 0.0 W/m2 CLR
05:26 -1.4 °C -7.6 °C 1018.8 hPa Calm     63 % 0 mm 0.0 W/m2 CLR
05:41 -1.7 °C -7.6 °C 1018.8 hPa Calm   3.7 km/h 64 % 0 mm 0.0 W/m2 CLR
05:46 -1.8 °C -7.5 °C 1018.8 hPa Calm     65 % 0 mm 0.0 W/m2 CLR
05:51 -1.8 °C -7.6 °C 1018.8 hPa Calm     65 % 0 mm 0.0 W/m2 CLR
05:56 -1.9 °C -7.4 °C 1018.8 hPa Calm     66 % 0 mm 0.0 W/m2 CLR
06:06 -2.2 °C -7.5 °C 1018.8 hPa Calm     67 % 0 mm 0.0 W/m2 CLR
06:11 -2.2 °C -7.5 °C 1018.8 hPa Calm     67 % 0 mm 0.0 W/m2 CLR
06:16 -2.3 °C -7.4 °C 1018.8 hPa Calm     68 % 0 mm 0.0 W/m2 CLR
06:21 -2.3 °C -7.4 °C 1018.8 hPa Calm     68 % 0 mm 0.0 W/m2 CLR
06:26 -2.4 °C -7.5 °C 1018.8 hPa Calm     68 % 0 mm 0.0 W/m2 CLR
06:31 -2.3 °C -7.4 °C 1018.8 hPa Calm     68 % 0 mm 0.0 W/m2 CLR
06:36 -2.2 °C -7.3 °C 1019.2 hPa Calm     68 % 0 mm 0.0 W/m2 CLR
06:41 -2.2 °C -7.3 °C 1019.2 hPa Calm     68 % 0 mm 0.0 W/m2 CLR
06:46 -2.3 °C -7.4 °C 1019.2 hPa Calm     68 % 0 mm 0.0 W/m2 CLR
06:51 -2.2 °C -7.5 °C 1019.2 hPa Calm     67 % 0 mm 0.0 W/m2 CLR
06:56 -2.2 °C -7.5 °C 1019.2 hPa Calm     67 % 0 mm 0.0 W/m2 CLR
07:06 -2.3 °C -7.4 °C 1019.2 hPa Calm     68 % 0 mm 0.0 W/m2 CLR
07:11 -2.4 °C -7.5 °C 1019.5 hPa Calm     68 % 0 mm 0.0 W/m2 CLR
07:16 -2.3 °C -7.3 °C 1019.5 hPa Calm     69 % 0 mm 0.0 W/m2 CLR
07:21 -2.3 °C -7.2 °C 1019.2 hPa Calm     69 % 0 mm 0.0 W/m2 CLR
07:26 -2.2 °C -7.2 °C 1019.2 hPa Calm     69 % 0 mm 0.0 W/m2 CLR
07:31 -2.2 °C -7.2 °C 1019.2 hPa Calm     69 % 0 mm 5.0 W/m2 CLR
07:36 -2.1 °C -7.2 °C 1018.8 hPa Calm   13 km/h 68 % 0 mm 11.0 W/m2 CLR
07:41 -1.8 °C -7.3 °C 1018.8 hPa Calm   13 km/h 66 % 0 mm 18.0 W/m2 CLR
07:46 -1.7 °C -7.4 °C 1019.2 hPa West 8.7 km/h 14.8 km/h 65 % 0 mm 25.0 W/m2 CLR
07:56 -1.6 °C -7.5 °C 1019.5 hPa Calm   14.8 km/h 64 % 0 mm 42.0 W/m2 CLR
08:01 -1.5 °C -7.6 °C 1019.5 hPa Calm   11.1 km/h 63 % 0 mm 58.0 W/m2 CLR
08:06 -1.4 °C -7.6 °C 1019.9 hPa Calm   13 km/h 63 % 0 mm 35.0 W/m2 CLR
08:11 -1.3 °C -7.5 °C 1019.5 hPa Calm   13 km/h 63 % 0 mm 54.0 W/m2 CLR
08:17 -1.3 °C -7.7 °C 1019.5 hPa WNW 1 km/h 5.6 km/h 62 % 0 mm 53.0 W/m2 CLR
08:22 -1.3 °C -7.7 °C 1019.9 hPa Calm   5.6 km/h 62 % 0 mm 32.0 W/m2 CLR
08:27 -1.3 °C -7.7 °C 1019.5 hPa WNW 0.3 km/h 11.1 km/h 62 % 0 mm 44.0 W/m2 CLR
08:32 -1.3 °C -7.6 °C 1019.9 hPa Calm   11.1 km/h 62 % 0 mm 56.0 W/m2 CLR
08:37 -1.3 °C -7.6 °C 1019.9 hPa WNW 1.8 km/h 11.1 km/h 62 % 0 mm 63.0 W/m2 CLR
08:47 -1.2 °C -7.6 °C 1019.9 hPa Calm   13 km/h 62 % 0 mm 65.0 W/m2 CLR
08:57 -1.2 °C -7.6 °C 1019.2 hPa Calm   1.9 km/h 62 % 0 mm 67.0 W/m2 CLR
09:02 -1.2 °C -7.8 °C 1019.9 hPa Calm     61 % 0 mm 58.0 W/m2 CLR
09:07 -1.2 °C -7.7 °C 1019.9 hPa Calm   1.9 km/h 61 % 0 mm 77.0 W/m2 CLR
09:12 -1.1 °C -7.5 °C 1019.9 hPa Calm   1.9 km/h 62 % 0 mm 116.0 W/m2 CLR
09:17 -1.1 °C -7.4 °C 1019.9 hPa WNW 0.2 km/h 1.9 km/h 62 % 0 mm 90.0 W/m2 CLR
09:22 -0.9 °C -7.3 °C 1019.9 hPa NW 1 km/h 5.6 km/h 62 % 0 mm 83.0 W/m2 CLR
09:28 -1 °C -7.4 °C 1020.2 hPa Calm   5.6 km/h 62 % 0 mm 142.0 W/m2 CLR
09:33 -0.9 °C -7.3 °C 1019.9 hPa NW 0.8 km/h 5.6 km/h 62 % 0 mm 174.0 W/m2 CLR
09:38 -0.6 °C -7.2 °C 1019.9 hPa NW 1.3 km/h 13 km/h 61 % 0 mm 195.0 W/m2 CLR
09:43 -0.5 °C -7.3 °C 1020.2 hPa WNW 0.6 km/h 13 km/h 60 % 0 mm 243.0 W/m2 CLR
09:48 -0.6 °C -7.4 °C 1020.2 hPa Calm   13 km/h 60 % 0 mm 192.0 W/m2 CLR
09:53 -0.6 °C -7.4 °C 1020.2 hPa Calm   5.6 km/h 60 % 0 mm 192.0 W/m2 CLR
09:58 -0.4 °C -7.3 °C 1020.2 hPa Calm   13 km/h 60 % 0 mm 160.0 W/m2 CLR
10:03 -0.4 °C -7.4 °C 1020.2 hPa West 1.8 km/h 13 km/h 59 % 0 mm 134.0 W/m2 CLR
10:08 -0.4 °C -7.4 °C 1019.9 hPa Calm   13 km/h 59 % 0 mm 114.0 W/m2 CLR
10:13 -0.4 °C -7.5 °C 1020.2 hPa Calm   9.3 km/h 59 % 0 mm 107.0 W/m2 CLR
10:18 -0.6 °C -7.6 °C 1020.2 hPa SW 1.9 km/h 9.3 km/h 59 % 0 mm 98.0 W/m2 CLR
10:24 -0.6 °C -7.4 °C 1019.9 hPa WSW 1 km/h 7.4 km/h 60 % 0 mm 113.0 W/m2 CLR
10:29 -0.6 °C -7.4 °C 1020.2 hPa WSW 4.8 km/h 13 km/h 60 % 0 mm 107.0 W/m2 CLR
10:34 -0.6 °C -7.4 °C 1020.2 hPa SW 3.2 km/h 13 km/h 60 % 0 mm 107.0 W/m2 CLR
10:39 -0.5 °C -7.3 °C 1020.2 hPa Calm   13 km/h 60 % 0 mm 116.0 W/m2 CLR
10:44 -0.5 °C -7.1 °C 1019.5 hPa SW 1.3 km/h 7.4 km/h 61 % 0 mm 141.0 W/m2 CLR
10:49 -0.6 °C -7.2 °C 1019.5 hPa Calm   5.6 km/h 61 % 0 mm 169.0 W/m2 CLR
10:54 -0.5 °C -6.9 °C 1019.5 hPa Calm   5.6 km/h 62 % 0 mm 176.0 W/m2 CLR
10:59 -0.5 °C -7.1 °C 1019.5 hPa SW 0.5 km/h 7.4 km/h 61 % 0 mm 216.0 W/m2 CLR
11:04 -0.3 °C -6.9 °C 1019.2 hPa SSW 0.5 km/h 7.4 km/h 61 % 0 mm 316.0 W/m2 CLR
11:09 -0.3 °C -6.9 °C 1019.2 hPa SW 0.8 km/h 7.4 km/h 61 % 0 mm 396.0 W/m2 CLR
11:14 -0.3 °C -7.1 °C 1019.2 hPa SW 2.4 km/h 9.3 km/h 60 % 0 mm 399.0 W/m2 CLR
11:19 -0.2 °C -7.1 °C 1019.2 hPa Calm   11.1 km/h 60 % 0 mm 288.0 W/m2 CLR
11:24 -0.1 °C -6.9 °C 1019.2 hPa Calm   11.1 km/h 60 % 0 mm 304.0 W/m2 CLR
11:29 0.2 °C -6.7 °C 1019.2 hPa SSW 0.5 km/h 5.6 km/h 60 % 0 mm 308.0 W/m2 CLR
11:34 0.3 °C -6.6 °C 1019.5 hPa West 0.5 km/h 7.4 km/h 60 % 0 mm 257.0 W/m2 CLR
11:39 0.3 °C -6.6 °C 1019.2 hPa Calm   11.1 km/h 60 % 0 mm 223.0 W/m2 CLR
11:44 0.2 °C -6.8 °C 1019.2 hPa WSW 5.1 km/h 13 km/h 59 % 0 mm 285.0 W/m2 CLR
11:49 0.2 °C -6.9 °C 1019.5 hPa WSW 1.1 km/h 13 km/h 59 % 0 mm 202.0 W/m2 CLR
11:54 0.3 °C -6.8 °C 1019.2 hPa West 0.3 km/h 13 km/h 59 % 0 mm 213.0 W/m2 CLR
11:59 0.2 °C -6.8 °C 1018.8 hPa SW 1.8 km/h 7.4 km/h 59 % 0 mm 185.0 W/m2 CLR
12:09 0.2 °C -6.9 °C 1018.5 hPa SW 3.7 km/h 14.8 km/h 59 % 0 mm 192.0 W/m2 CLR
12:14 0.2 °C -6.8 °C 1018.5 hPa WSW 6.4 km/h 13 km/h 59 % 0 mm 195.0 W/m2 CLR
12:19 0.1 °C -6.9 °C 1018.8 hPa SW 3.1 km/h 13 km/h 59 % 0 mm 221.0 W/m2 CLR
12:24 0.1 °C -6.9 °C 1018.8 hPa WSW 3.7 km/h 13 km/h 59 % 0 mm 192.0 W/m2 CLR
12:29 0.2 °C -6.9 °C 1018.8 hPa WSW 0.8 km/h 16.7 km/h 59 % 0 mm 179.0 W/m2 CLR
12:34 0.2 °C -6.8 °C 1018.8 hPa West 4.7 km/h 16.7 km/h 59 % 0 mm 171.0 W/m2 CLR
12:39 0.3 °C -6.8 °C 1018.8 hPa WSW 2.3 km/h 14.8 km/h 59 % 0 mm 155.0 W/m2 CLR
12:44 0.3 °C -7.1 °C 1018.8 hPa SW 8.7 km/h 18.5 km/h 58 % 0 mm 158.0 W/m2 CLR
12:49 0.2 °C -6.9 °C 1018.5 hPa SW 1 km/h 18.5 km/h 59 % 0 mm 179.0 W/m2 CLR
12:54 0.2 °C -6.8 °C 1018.5 hPa WSW 5.6 km/h 14.8 km/h 59 % 0 mm 160.0 W/m2 CLR
12:59 0.3 °C -6.8 °C 1018.5 hPa WSW 0.3 km/h 11.1 km/h 59 % 0 mm 160.0 W/m2 CLR
13:09 0.4 °C -6.9 °C 1018.5 hPa WSW 0.2 km/h 7.4 km/h 58 % 0 mm 135.0 W/m2 CLR
13:14 0.3 °C -7 °C 1018.5 hPa WSW 2.7 km/h 11.1 km/h 58 % 0 mm 132.0 W/m2 CLR
13:19 0.3 °C -7 °C 1018.2 hPa WSW 2.1 km/h 14.8 km/h 58 % 0 mm 135.0 W/m2 CLR
13:24 0.4 °C -6.7 °C 1018.2 hPa Calm   14.8 km/h 59 % 0 mm 123.0 W/m2 CLR
13:29 0.4 °C -6.7 °C 1018.2 hPa Calm   11.1 km/h 59 % 0 mm 135.0 W/m2 CLR
13:34 0.4 °C -6.7 °C 1018.2 hPa WSW 4.3 km/h 11.1 km/h 59 % 0 mm 135.0 W/m2 CLR
13:35 0.4 °C -6.7 °C 1018.2 hPa SW 7.7 km/h 11.1 km/h 59 % 0 mm 135.0 W/m2 CLR
13:40 0.4 °C -6.7 °C 1017.8 hPa Calm   13 km/h 59 % 0 mm 127.0 W/m2 CLR
13:45 0.4 °C -6.7 °C 1017.8 hPa WSW 1.1 km/h 13 km/h 59 % 0 mm 127.0 W/m2 CLR
13:50 0.4 °C -6.9 °C 1017.5 hPa Calm   12.9 km/h 58 % 0 mm 123.0 W/m2 CLR
13:55 0.4 °C -6.7 °C 1017.5 hPa SW 1.6 km/h 6.4 km/h 59 % 0 mm 120.0 W/m2 CLR
14:00 0.3 °C -7 °C 1017.5 hPa SSW 0.2 km/h 7.4 km/h 58 % 0 mm 116.0 W/m2 CLR
14:05 0.4 °C -6.7 °C 1017.5 hPa SW 8 km/h 12.9 km/h 59 % 0 mm 97.0 W/m2 CLR
14:10 0.4 °C -6.7 °C 1017.5 hPa SW 0.5 km/h 13 km/h 59 % 0 mm 91.0 W/m2 CLR
14:15 0.4 °C -6.7 °C 1017.8 hPa WSW 0.8 km/h 13 km/h 59 % 0 mm 95.0 W/m2 CLR
14:20 0.4 °C -6.9 °C 1017.5 hPa SSW 0.6 km/h 9.3 km/h 58 % 0 mm 93.0 W/m2 CLR
14:25 0.4 °C -6.8 °C 1017.5 hPa WSW 1.6 km/h 14.5 km/h 58 % 0 mm 97.0 W/m2 CLR
14:30 0.6 °C -6.8 °C 1017.8 hPa Calm   14.8 km/h 58 % 0 mm 95.0 W/m2 CLR
14:35 0.6 °C -6.8 °C 1017.8 hPa Calm   14.5 km/h 58 % 0 mm 98.0 W/m2 CLR
14:40 0.7 °C -6.7 °C 1017.8 hPa Calm   6.4 km/h 58 % 0 mm 93.0 W/m2 CLR
14:45 0.6 °C -6.7 °C 1017.5 hPa SW 1.1 km/h 5.6 km/h 58 % 0 mm 91.0 W/m2 CLR
14:50 0.6 °C -6.9 °C 1017.5 hPa SSW 0.6 km/h 9.3 km/h 57 % 0 mm 67.0 W/m2 CLR
14:55 0.7 °C -6.9 °C 1017.8 hPa SW 1.6 km/h 11.3 km/h 57 % 0 mm 76.0 W/m2 CLR
15:00 0.7 °C -6.7 °C 1017.5 hPa Calm   13 km/h 58 % 0 mm 77.0 W/m2 CLR
15:05 0.7 °C -6.9 °C 1017.8 hPa SW 1.6 km/h 14.8 km/h 57 % 0 mm 62.0 W/m2 CLR
15:10 0.7 °C -6.9 °C 1017.8 hPa SW 2.1 km/h 14.8 km/h 57 % 0 mm 49.0 W/m2 CLR
15:15 0.7 °C -6.7 °C 1017.8 hPa Calm   11.1 km/h 58 % 0 mm 42.0 W/m2 CLR
15:20 0.7 °C -6.7 °C 1017.8 hPa WSW 1.6 km/h 11.1 km/h 58 % 0 mm 37.0 W/m2 CLR
15:25 0.7 °C -6.7 °C 1017.8 hPa WSW 0.2 km/h 11.1 km/h 58 % 0 mm 35.0 W/m2 CLR
15:30 0.7 °C -6.7 °C 1017.8 hPa WSW 0.3 km/h 14.8 km/h 58 % 0 mm 26.0 W/m2 CLR
15:35 0.6 °C -6.7 °C 1017.8 hPa West 0.5 km/h 14.8 km/h 58 % 0 mm 21.0 W/m2 CLR
15:40 0.6 °C -6.7 °C 1017.5 hPa WSW 0.2 km/h 13 km/h 58 % 0 mm 21.0 W/m2 CLR
15:45 0.6 °C -6.8 °C 1017.5 hPa West 0.2 km/h 13 km/h 58 % 0 mm 21.0 W/m2 CLR
15:50 0.6 °C -6.8 °C 1017.5 hPa WSW 0.2 km/h 3.7 km/h 58 % 0 mm 19.0 W/m2 CLR
15:55 0.6 °C -6.8 °C 1017.5 hPa West 1.8 km/h 9.3 km/h 58 % 0 mm 16.0 W/m2 CLR
16:00 0.6 °C -6.5 °C 1017.5 hPa West 0.3 km/h 9.3 km/h 59 % 0 mm 12.0 W/m2 CLR
16:05 0.6 °C -6.8 °C 1017.5 hPa Calm   13 km/h 58 % 0 mm 12.0 W/m2 CLR
16:10 0.5 °C -6.8 °C 1017.5 hPa Calm   13 km/h 58 % 0 mm 11.0 W/m2 CLR
16:15 0.5 °C -6.8 °C 1017.5 hPa Calm     58 % 0 mm 5.0 W/m2 CLR
16:40 0.4 °C -6.7 °C 1017.5 hPa Calm     59 % 0 mm 0.0 W/m2 CLR
16:46 0.4 °C -6.5 °C 1017.8 hPa Calm     60 % 0 mm 0.0 W/m2 CLR
16:51 0.4 °C -6.5 °C 1017.8 hPa Calm     60 % 0 mm 0.0 W/m2 CLR
16:56 0.4 °C -6.5 °C 1017.8 hPa Calm     60 % 0 mm 0.0 W/m2 CLR
17:01 0.3 °C -6.6 °C 1017.8 hPa Calm     60 % 0 mm 0.0 W/m2 CLR
17:11 0.3 °C -6.6 °C 1017.8 hPa Calm     60 % 0 mm 0.0 W/m2 CLR
17:16 0.3 °C -6.6 °C 1017.8 hPa Calm     60 % 0 mm 0.0 W/m2 CLR
17:21 0.2 °C -6.7 °C 1017.8 hPa Calm     60 % 0 mm 0.0 W/m2 CLR
17:26 0.2 °C -6.4 °C 1017.5 hPa Calm     61 % 0 mm 0.0 W/m2 CLR
17:41 0.2 °C -6.9 °C 1016.8 hPa Calm     59 % 0 mm 0.0 W/m2 CLR
17:46 0.2 °C -6.9 °C 1016.8 hPa Calm     59 % 0 mm 0.0 W/m2 CLR
17:51 0.2 °C -6.9 °C 1016.8 hPa Calm     59 % 0 mm 0.0 W/m2 CLR
17:56 0.1 °C -6.9 °C 1016.8 hPa Calm     59 % 0 mm 0.0 W/m2 CLR
18:01 0.1 °C -6.9 °C 1016.8 hPa Calm     59 % 0 mm 0.0 W/m2 CLR
18:11 0.1 °C -6.9 °C 1016.8 hPa Calm     59 % 0 mm 0.0 W/m2 CLR
18:26 0.1 °C -7.2 °C 1016.8 hPa Calm     58 % 0 mm 0.0 W/m2 CLR
18:31 0.1 °C -7 °C 1017.2 hPa Calm     59 % 0 mm 0.0 W/m2 CLR
18:36 0.1 °C -6.7 °C 1016.8 hPa Calm     60 % 0 mm 0.0 W/m2 CLR
18:41 0.1 °C -6.7 °C 1016.5 hPa Calm     60 % 0 mm 0.0 W/m2 CLR
18:51 0 °C -6.8 °C 1016.5 hPa Calm     60 % 0 mm 0.0 W/m2 CLR
18:56 0 °C -6.8 °C 1016.5 hPa Calm     60 % 0 mm 0.0 W/m2 CLR
19:01 0 °C -6.8 °C 1016.8 hPa Calm     60 % 0 mm 0.0 W/m2 CLR
19:06 0 °C -6.8 °C 1016.5 hPa Calm     60 % 0 mm 0.0 W/m2 CLR
19:11 -0.1 °C -6.9 °C 1016.8 hPa Calm     60 % 0 mm 0.0 W/m2 CLR
19:21 0 °C -6.8 °C 1016.8 hPa Calm     60 % 0 mm 0.0 W/m2 CLR
19:26 -0.1 °C -6.7 °C 1016.8 hPa Calm     61 % 0 mm 0.0 W/m2 CLR
19:31 -0.2 °C -6.8 °C 1016.8 hPa Calm     61 % 0 mm 0.0 W/m2 CLR
19:36 -0.2 °C -6.8 °C 1016.8 hPa Calm     61 % 0 mm 0.0 W/m2 CLR
19:41 -0.2 °C -6.8 °C 1016.5 hPa Calm     61 % 0 mm 0.0 W/m2 CLR
19:46 -0.2 °C -6.8 °C 1016.5 hPa Calm     61 % 0 mm 0.0 W/m2 CLR
19:51 -0.2 °C -7 °C 1016.8 hPa Calm     60 % 0 mm 0.0 W/m2 CLR
19:56 -0.1 °C -6.7 °C 1016.5 hPa Calm     61 % 0 mm 0.0 W/m2 CLR
20:01 -0.2 °C -7 °C 1016.5 hPa Calm     60 % 0 mm 0.0 W/m2 CLR
20:06 -0.2 °C -6.8 °C 1016.5 hPa Calm     61 % 0 mm 0.0 W/m2 CLR
20:11 -0.2 °C -6.8 °C 1016.5 hPa Calm     61 % 0 mm 0.0 W/m2 CLR
20:16 -0.2 °C -6.8 °C 1016.5 hPa Calm     61 % 0 mm 0.0 W/m2 CLR
20:21 -0.2 °C -6.8 °C 1016.1 hPa Calm     61 % 0 mm 0.0 W/m2 CLR
20:26 -0.2 °C -6.6 °C 1016.1 hPa Calm     62 % 0 mm 0.0 W/m2 CLR
20:31 -0.3 °C -6.5 °C 1015.8 hPa Calm     63 % 0 mm 0.0 W/m2 CLR
20:36 -0.3 °C -6.5 °C 1015.8 hPa Calm     63 % 0 mm 0.0 W/m2 CLR
20:41 -0.4 °C -6.4 °C 1015.8 hPa Calm     64 % 0 mm 0.0 W/m2 CLR
20:46 -0.3 °C -6.3 °C 1015.8 hPa Calm     64 % 0 mm 0.0 W/m2 CLR
20:51 -0.4 °C -6.2 °C 1016.1 hPa Calm     65 % 0 mm 0.0 W/m2 CLR
20:56 -0.4 °C -6.2 °C 1016.1 hPa Calm     65 % 0 mm 0.0 W/m2 CLR
21:07 -0.4 °C -6.2 °C 1016.5 hPa Calm     65 % 0 mm 0.0 W/m2 CLR
21:17 -0.4 °C -6.2 °C 1016.5 hPa Calm     65 % 0 mm 0.0 W/m2 CLR
21:27 -0.4 °C -6.2 °C 1016.1 hPa Calm     65 % 0 mm 0.0 W/m2 CLR
21:37 -0.4 °C -6.4 °C 1016.1 hPa Calm     64 % 0 mm 0.0 W/m2 CLR
21:42 -0.4 °C -6.2 °C 1016.1 hPa Calm     65 % 0 mm 0.0 W/m2 CLR
21:47 -0.3 °C -6.1 °C 1016.1 hPa Calm     65 % 0 mm 0.0 W/m2 CLR
21:52 -0.4 °C -6.2 °C 1016.5 hPa Calm     65 % 0 mm 0.0 W/m2 CLR
21:57 -0.4 °C -6.2 °C 1016.5 hPa Calm     65 % 0 mm 0.0 W/m2 CLR
22:13 -0.3 °C -6.1 °C 1016.5 hPa Calm     65 % 0 mm 0.0 W/m2 CLR
22:18 -0.3 °C -6.1 °C 1016.1 hPa Calm     65 % 0 mm 0.0 W/m2 CLR
22:19 -0.4 °C -6.2 °C 1016.1 hPa Calm     65 % 0 mm 0.0 W/m2 CLR
22:21 -0.4 °C -6.2 °C 1015.8 hPa Calm     65 % 0 mm 0.0 W/m2 CLR
22:26 -0.4 °C -6.2 °C 1015.8 hPa Calm     65 % 0 mm 0.0 W/m2 CLR
22:27 -0.4 °C -6.2 °C 1016.1 hPa Calm     65 % 0 mm 0.0 W/m2 CLR
22:32 -0.4 °C -6.2 °C 1015.8 hPa Calm     65 % 0 mm 0.0 W/m2 CLR
22:37 -0.4 °C -6.2 °C 1015.8 hPa Calm     65 % 0 mm 0.0 W/m2 CLR
22:42 -0.5 °C -6.5 °C 1015.5 hPa Calm     64 % 0 mm 0.0 W/m2 CLR
22:47 -0.5 °C -6.3 °C 1015.5 hPa Calm     65 % 0 mm 0.0 W/m2 CLR
22:57 -0.6 °C -6.1 °C 1015.5 hPa Calm     66 % 0 mm 0.0 W/m2 CLR
23:02 -0.6 °C -6.3 °C 1015.5 hPa Calm     65 % 0 mm 0.0 W/m2 BKN
23:07 -0.6 °C -6.2 °C 1015.5 hPa Calm     66 % 0 mm 0.0 W/m2 BKN
23:12 -0.6 °C -6.1 °C 1015.5 hPa Calm     66 % 0 mm 0.0 W/m2 BKN
23:17 -0.6 °C -6.2 °C 1015.5 hPa Calm     66 % 0 mm 0.0 W/m2 BKN
23:22 -0.6 °C -6.1 °C 1015.8 hPa Calm     66 % 0 mm 0.0 W/m2 BKN
23:27 -0.6 °C -5.9 °C 1015.8 hPa Calm     67 % 0 mm 0.0 W/m2 BKN
23:37 -0.6 °C -6.1 °C 1015.5 hPa Calm     66 % 0 mm 0.0 W/m2 BKN
23:47 -0.6 °C -6.3 °C 1015.8 hPa Calm     65 % 0 mm 0.0 W/m2 BKN
23:52 -0.5 °C -6.3 °C 1015.8 hPa Calm     65 % 0 mm 0.0 W/m2 BKN
23:57 -0.6 °C -6.3 °C 1015.8 hPa Calm     65 % 0 mm 0.0 W/m2 BKN
23:58 -0.6 °C -6.3 °C 1015.8 hPa Calm     65 % 0 mm 0.0 W/m2 BKN
Air Products Campus Weather
Compliments of Weather Underground - 3.25 mb